Time;durP1;ratioP1;P1;durP2;ratioP2;P2;SDS_P1;SDS_P2;PMS_P1;PMS_P2;Temp;Humidity;BMP_temperature;BMP_pressure;BME280_temperature;BME280_humidity;BME280_pressure;Samples;Min_cycle;Max_cycle;Signal;HPM_P1;HPM_P2
2023/10/01 00:00:57;;;;;;;7.90;3.50;;;9.70;99.90;;;;;;8344192;28;20197;-64
2023/10/01 00:05:03;;;;;;;6.43;3.23;;;9.70;99.90;;;;;;8362931;28;20188;-64
2023/10/01 00:09:07;;;;;;;6.20;3.07;;;9.70;99.90;;;;;;8349953;28;20213;-65
2023/10/01 00:13:08;;;;;;;9.03;3.77;;;9.80;99.90;;;;;;8350997;28;20192;-64
2023/10/01 00:17:09;;;;;;;10.47;3.30;;;9.80;99.90;;;;;;8348466;28;20284;-65
2023/10/01 00:21:12;;;;;;;6.17;3.20;;;9.80;99.90;;;;;;8370492;28;20221;-66
2023/10/01 00:25:15;;;;;;;8.23;3.10;;;9.80;99.90;;;;;;8349029;28;20266;-66
2023/10/01 00:29:15;;;;;;;7.47;3.27;;;9.80;99.90;;;;;;8348648;28;20185;-65
2023/10/01 00:33:17;;;;;;;6.13;2.73;;;9.80;99.90;;;;;;8341995;28;20185;-66
2023/10/01 00:37:17;;;;;;;7.27;3.13;;;9.80;99.90;;;;;;8364618;28;20188;-64
2023/10/01 00:41:18;;;;;;;8.73;3.30;;;9.70;99.90;;;;;;8361916;28;20190;-66
2023/10/01 00:45:20;;;;;;;8.53;3.27;;;9.70;99.90;;;;;;8345783;28;20197;-65
2023/10/01 00:49:23;;;;;;;7.17;2.73;;;9.70;99.90;;;;;;8348221;28;20243;-64
2023/10/01 00:53:25;;;;;;;7.03;2.90;;;9.80;99.90;;;;;;8347385;28;20247;-64
2023/10/01 00:57:26;;;;;;;5.63;2.97;;;9.80;99.90;;;;;;8359192;28;20287;-64
2023/10/01 01:01:27;;;;;;;9.27;3.20;;;9.80;99.90;;;;;;8360553;28;20189;-64
2023/10/01 01:05:34;;;;;;;7.77;3.23;;;9.80;99.90;;;;;;8344479;28;20185;-65
2023/10/01 01:09:36;;;;;;;7.60;2.70;;;9.90;99.90;;;;;;8359163;28;20203;-65
2023/10/01 01:13:37;;;;;;;9.37;3.30;;;10.00;99.90;;;;;;8353010;28;20181;-66
2023/10/01 01:17:39;;;;;;;7.43;2.90;;;10.00;99.90;;;;;;8350203;28;20194;-64
2023/10/01 01:21:44;;;;;;;5.43;2.73;;;10.10;99.90;;;;;;8368592;28;20351;-68
2023/10/01 01:25:52;;;;;;;8.10;3.17;;;10.20;99.90;;;;;;8402995;28;20229;-71
2023/10/01 01:29:54;;;;;;;6.93;3.20;;;10.30;99.90;;;;;;8374172;28;20207;-69
2023/10/01 01:33:57;;;;;;;4.23;2.43;;;10.30;99.90;;;;;;8372519;28;20180;-68
2023/10/01 01:37:58;;;;;;;5.03;2.60;;;10.30;99.90;;;;;;8380025;28;20172;-71
2023/10/01 01:42:02;;;;;;;5.50;2.83;;;10.30;99.90;;;;;;8397235;28;20175;-72
2023/10/01 01:46:08;;;;;;;6.73;2.80;;;10.40;99.90;;;;;;8407421;28;20201;-72
2023/10/01 01:50:21;;;;;;;5.30;2.63;;;10.40;99.90;;;;;;8385074;28;20186;-71
2023/10/01 01:54:31;;;;;;;5.73;2.33;;;10.40;99.90;;;;;;8386565;28;20215;-71
2023/10/01 01:58:35;;;;;;;5.03;2.73;;;10.50;99.90;;;;;;8392182;28;20193;-70
2023/10/01 02:02:52;;;;;;;7.30;3.00;;;10.40;97.00;;;;;;8420187;28;20178;-70
2023/10/01 02:07:01;;;;;;;6.07;2.30;;;10.40;93.20;;;;;;8397908;28;20198;-70
2023/10/01 02:11:09;;;;;;;5.37;2.37;;;10.30;95.60;;;;;;8417376;28;20185;-71
2023/10/01 02:15:12;;;;;;;5.97;2.93;;;10.10;98.90;;;;;;8387585;28;20191;-71
2023/10/01 02:19:17;;;;;;;5.27;2.20;;;10.00;99.90;;;;;;8396902;28;20182;-69
2023/10/01 02:23:26;;;;;;;3.43;2.40;;;9.90;99.90;;;;;;8397670;28;20220;-71
2023/10/01 02:27:29;;;;;;;4.30;1.97;;;9.90;99.90;;;;;;8393320;28;20204;-71
2023/10/01 02:31:34;;;;;;;6.53;2.73;;;9.90;99.90;;;;;;8359841;28;20418;-65
2023/10/01 02:35:36;;;;;;;7.43;2.43;;;10.00;99.90;;;;;;8355536;28;20197;-64
2023/10/01 02:39:41;;;;;;;3.70;2.13;;;10.00;99.90;;;;;;8368214;28;20191;-64
2023/10/01 02:43:42;;;;;;;4.10;2.40;;;10.10;99.90;;;;;;8370283;28;20182;-64
2023/10/01 02:48:12;;;;;;;4.57;2.20;;;10.10;99.90;;;;;;8364112;28;20224;-66
2023/10/01 02:52:05;;;;;;;6.60;3.17;;;10.20;99.90;;;;;;8365782;28;20189;-66
2023/10/01 02:56:05;;;;;;;3.37;2.00;;;10.20;99.90;;;;;;8364099;28;20277;-67
2023/10/01 03:00:20;;;;;;;6.47;2.50;;;10.20;99.90;;;;;;8361355;28;20208;-64
2023/10/01 03:04:22;;;;;;;5.47;2.43;;;10.20;99.90;;;;;;8367358;28;20266;-66
2023/10/01 03:08:41;;;;;;;6.27;2.30;;;10.30;99.90;;;;;;8350831;28;20207;-67
2023/10/01 03:12:42;;;;;;;7.57;2.53;;;10.40;99.90;;;;;;8364758;28;20185;-65
2023/10/01 03:16:45;;;;;;;3.80;2.10;;;10.40;99.90;;;;;;8350734;28;20193;-66
2023/10/01 03:24:47;;;;;;;3.77;2.00;;;10.40;99.90;;;;;;8366373;28;20328;-64
2023/10/01 03:33:08;;;;;;;4.37;2.03;;;10.50;92.10;;;;;;8365903;28;20196;-65
2023/10/01 03:37:10;;;;;;;3.87;2.07;;;10.50;79.30;;;;;;8350908;28;20221;-64
2023/10/01 03:41:23;;;;;;;8.33;2.43;;;10.50;71.60;;;;;;8384941;28;20250;-65
2023/10/01 03:45:37;;;;;;;8.07;3.00;;;10.60;60.30;;;;;;8344032;28;20286;-65
2023/10/01 03:49:45;;;;;;;8.27;2.40;;;10.70;30.00;;;;;;8343932;28;20192;-70
2023/10/01 03:53:46;;;;;;;5.07;2.40;;;10.70;30.50;;;;;;8374074;28;20218;-72
2023/10/01 04:02:27;;;;;;;3.17;1.70;;;10.60;32.40;;;;;;8390448;28;20201;-65
2023/10/01 04:06:32;;;;;;;4.27;1.77;;;10.60;29.30;;;;;;8362921;28;20214;-65
2023/10/01 04:10:34;;;;;;;3.27;2.10;;;10.60;41.70;;;;;;8367204;28;20249;-65
2023/10/01 04:14:39;;;;;;;3.60;1.87;;;10.60;50.50;;;;;;8352793;28;20182;-65
2023/10/01 04:18:48;;;;;;;3.70;2.10;;;10.60;66.80;;;;;;8350876;28;20187;-64
2023/10/01 04:23:04;;;;;;;2.97;2.10;;;10.50;86.20;;;;;;8353049;28;20387;-65
2023/10/01 04:27:18;;;;;;;2.57;1.60;;;10.50;98.60;;;;;;8347043;28;20228;-65
2023/10/01 04:31:42;;;;;;;3.87;2.07;;;10.50;99.90;;;;;;8366691;28;20373;-64
2023/10/01 04:35:55;;;;;;;3.40;2.30;;;10.40;99.90;;;;;;8367321;28;20527;-64
2023/10/01 04:39:56;;;;;;;4.13;2.50;;;10.40;99.90;;;;;;8350449;28;20187;-64
2023/10/01 04:44:06;;;;;;;4.73;2.07;;;10.40;99.90;;;;;;8345652;28;20186;-65
2023/10/01 04:48:22;;;;;;;4.30;2.40;;;10.40;99.90;;;;;;8374182;28;20228;-65
2023/10/01 04:52:24;;;;;;;4.57;2.27;;;10.40;99.90;;;;;;8363170;28;20183;-65
2023/10/01 04:56:25;;;;;;;4.17;2.20;;;10.40;99.90;;;;;;8346184;28;20215;-66
2023/10/01 05:00:55;;;;;;;5.40;2.30;;;10.40;99.90;;;;;;8365561;28;20178;-71
2023/10/01 05:05:09;;;;;;;3.57;2.07;;;10.40;99.90;;;;;;8398729;28;20200;-70
2023/10/01 05:09:15;;;;;;;6.43;2.17;;;10.40;99.90;;;;;;8406313;28;20195;-72
2023/10/01 05:13:19;;;;;;;4.87;2.47;;;10.40;99.90;;;;;;8394982;28;20184;-71
2023/10/01 05:17:38;;;;;;;3.93;2.27;;;10.50;99.90;;;;;;8382346;28;20419;-71
2023/10/01 05:21:46;;;;;;;8.93;2.80;;;10.60;99.90;;;;;;8365078;28;20216;-71
2023/10/01 05:25:47;;;;;;;7.60;2.50;;;10.80;99.90;;;;;;8340828;28;20255;-71
2023/10/01 05:29:48;;;;;;;7.47;2.77;;;11.00;99.90;;;;;;8356121;28;20200;-70
2023/10/01 05:33:52;;;;;;;5.27;2.30;;;11.30;99.90;;;;;;8343772;28;20581;-71
2023/10/01 05:37:53;;;;;;;4.93;2.27;;;11.50;99.90;;;;;;8357296;28;20246;-72
2023/10/01 05:41:54;;;;;;;4.47;2.17;;;11.70;20.10;;;;;;8344009;28;20363;-71
2023/10/01 05:46:01;;;;;;;5.70;1.77;;;11.90;1.00;;;;;;8342101;28;20213;-70
2023/10/01 05:50:08;;;;;;;6.57;2.23;;;12.10;1.00;;;;;;8358504;28;20199;-70
2023/10/01 05:54:11;;;;;;;4.73;1.90;;;12.20;1.00;;;;;;8344460;28;20314;-70
2023/10/01 05:58:16;;;;;;;4.73;2.00;;;12.40;1.00;;;;;;8340433;28;20265;-70
2023/10/01 06:02:37;;;;;;;5.47;1.97;;;12.60;1.00;;;;;;8357928;28;20257;-70
2023/10/01 06:06:38;;;;;;;4.27;2.03;;;12.80;1.00;;;;;;8358523;28;20209;-70
2023/10/01 06:11:13;;;;;;;4.57;2.37;;;12.90;1.00;;;;;;8339287;28;20266;-71
2023/10/01 06:15:13;;;;;;;6.20;2.27;;;13.00;1.00;;;;;;8342589;28;20187;-71
2023/10/01 06:19:14;;;;;;;3.40;1.57;;;13.10;1.00;;;;;;8357678;28;20212;-70
2023/10/01 06:23:15;;;;;;;5.03;2.10;;;13.20;1.00;;;;;;8356651;28;20216;-71
2023/10/01 06:27:19;;;;;;;4.13;1.73;;;13.40;1.00;;;;;;8345447;28;20219;-71
2023/10/01 06:31:20;;;;;;;7.43;1.83;;;13.60;1.00;;;;;;8346654;28;20186;-70
2023/10/01 06:35:22;;;;;;;5.23;2.20;;;13.80;1.00;;;;;;8362345;28;20193;-71
2023/10/01 06:39:30;;;;;;;4.47;1.90;;;14.00;1.00;;;;;;8350635;28;20189;-71
2023/10/01 06:48:29;;;;;;;5.97;2.03;;;14.30;1.00;;;;;;8354705;28;20224;-70
2023/10/01 06:52:34;;;;;;;5.47;1.90;;;14.30;1.00;;;;;;8362394;28;20177;-70
2023/10/01 06:56:35;;;;;;;9.03;2.03;;;14.40;1.00;;;;;;8349313;28;20249;-71
2023/10/01 07:00:41;;;;;;;4.20;1.90;;;14.60;1.00;;;;;;8365756;22;20237;-84
2023/10/01 07:04:52;;;;;;;8.17;2.63;;;14.80;1.00;;;;;;8335002;28;20210;-83
2023/10/01 07:08:59;;;;;;;5.10;2.10;;;15.00;1.00;;;;;;8351242;28;20205;-84
2023/10/01 07:13:07;;;;;;;4.93;1.73;;;15.20;1.00;;;;;;8333270;28;20255;-82
2023/10/01 07:17:25;;;;;;;3.90;1.90;;;15.40;1.00;;;;;;8331445;28;20233;-83
2023/10/01 07:21:26;;;;;;;4.83;1.80;;;15.40;1.00;;;;;;8333233;28;20263;-82
2023/10/01 07:26:00;;;;;;;7.97;2.23;;;15.70;1.00;;;;;;8329025;28;20197;-82
2023/10/01 07:29:55;;;;;;;7.20;1.90;;;15.90;1.00;;;;;;8341024;28;20197;-83
2023/10/01 07:34:01;;;;;;;6.07;2.10;;;16.10;1.00;;;;;;8330675;28;20182;-82
2023/10/01 07:38:03;;;;;;;4.83;1.73;;;16.30;1.00;;;;;;8330108;28;20190;-83
2023/10/01 07:42:04;;;;;;;7.93;2.30;;;16.40;1.00;;;;;;8328891;28;20222;-84
2023/10/01 07:46:07;;;;;;;5.20;2.27;;;16.60;1.00;;;;;;8311207;28;20210;-83
2023/10/01 07:50:12;;;;;;;8.17;2.63;;;16.90;1.00;;;;;;8330726;28;20186;-82
2023/10/01 07:54:22;;;;;;;5.90;2.13;;;17.20;1.00;;;;;;8328832;28;20290;-83
2023/10/01 07:58:23;;;;;;;7.40;2.70;;;17.30;1.00;;;;;;8349024;28;20464;-82
2023/10/01 08:02:27;;;;;;;8.27;2.70;;;17.40;1.00;;;;;;8348449;28;20243;-84
2023/10/01 08:06:30;;;;;;;8.33;2.53;;;17.30;1.00;;;;;;8331950;28;20236;-81
2023/10/01 08:10:37;;;;;;;10.10;2.43;;;17.40;1.00;;;;;;8333349;28;20189;-81
2023/10/01 08:14:40;;;;;;;11.57;2.70;;;17.50;1.00;;;;;;8333389;28;20399;-83
2023/10/01 08:18:46;;;;;;;4.60;2.07;;;17.60;1.00;;;;;;8334741;28;20193;-80
2023/10/01 08:27:31;;;;;;;5.90;2.90;;;17.70;1.00;;;;;;8346517;28;20259;-82
2023/10/01 08:36:01;;;;;;;6.33;2.83;;;18.30;1.00;;;;;;8344445;28;20210;-82
2023/10/01 08:40:02;;;;;;;6.60;3.07;;;18.50;1.00;;;;;;8344542;28;20186;-81
2023/10/01 08:44:10;;;;;;;6.07;2.00;;;18.50;1.00;;;;;;8329680;28;20240;-82
2023/10/01 08:48:17;;;;;;;4.70;2.10;;;18.40;1.00;;;;;;8329151;28;20212;-81
2023/10/01 08:52:25;;;;;;;6.53;2.80;;;18.30;1.00;;;;;;8328166;28;20190;-82
2023/10/01 08:56:33;;;;;;;7.83;2.23;;;18.30;1.00;;;;;;8347199;28;20271;-83
2023/10/01 09:00:34;;;;;;;6.07;2.30;;;18.40;1.00;;;;;;8344179;28;20202;-82
2023/10/01 09:04:44;;;;;;;6.90;2.40;;;18.30;1.00;;;;;;8325289;28;20186;-81
2023/10/01 09:08:45;;;;;;;5.27;2.17;;;18.60;1.00;;;;;;8346274;28;20213;-81
2023/10/01 09:13:03;;;;;;;4.17;1.97;;;18.10;1.00;;;;;;8331270;28;20209;-82
2023/10/01 09:17:26;;;;;;;4.90;2.00;;;18.00;1.00;;;;;;8342828;28;20192;-82
2023/10/01 09:21:38;;;;;;;5.57;2.00;;;18.00;1.00;;;;;;8329207;28;20232;-81
2023/10/01 09:25:42;;;;;;;4.97;1.77;;;18.20;1.00;;;;;;8328463;28;20186;-82
2023/10/01 09:29:57;;;;;;;7.10;1.70;;;18.40;1.00;;;;;;8330894;28;20255;-82
2023/10/01 09:34:29;;;;;;;6.97;1.90;;;18.70;1.00;;;;;;8348919;28;20182;-81
2023/10/01 09:38:30;;;;;;;4.63;2.27;;;18.50;1.00;;;;;;8347541;28;20385;-81
2023/10/01 09:42:44;;;;;;;4.37;2.00;;;18.30;1.00;;;;;;8328162;28;20194;-82
2023/10/01 09:46:45;;;;;;;6.13;2.23;;;18.50;1.00;;;;;;8347697;28;20237;-81
2023/10/01 09:50:48;;;;;;;5.53;2.00;;;19.00;1.00;;;;;;8330972;28;20187;-82
2023/10/01 09:54:49;;;;;;;5.60;1.70;;;19.60;1.00;;;;;;8330485;28;20181;-83
2023/10/01 09:58:57;;;;;;;5.73;2.00;;;19.60;1.00;;;;;;8329925;28;20236;-83
2023/10/01 10:03:01;;;;;;;5.07;2.10;;;19.60;1.00;;;;;;8342215;28;20253;-84
2023/10/01 10:07:04;;;;;;;7.13;1.83;;;19.80;1.00;;;;;;8331828;28;20198;-82
2023/10/01 10:11:24;;;;;;;5.73;1.97;;;19.90;1.00;;;;;;8339580;28;20198;-84
2023/10/01 10:15:57;;;;;;;5.10;1.77;;;19.60;1.00;;;;;;8335933;28;20191;-82
2023/10/01 10:24:31;;;;;;;5.77;1.80;;;19.20;1.00;;;;;;8352279;28;20332;-82
2023/10/01 10:28:53;;;;;;;6.40;1.80;;;19.30;1.00;;;;;;8352413;28;20210;-82
2023/10/01 10:33:15;;;;;;;4.87;1.70;;;18.90;1.00;;;;;;8351075;28;20186;-82
2023/10/01 10:37:39;;;;;;;6.10;1.77;;;18.80;1.00;;;;;;8358391;28;20197;-82
2023/10/01 10:42:27;;;;;;;5.40;1.80;;;19.00;1.00;;;;;;8346946;28;20211;-82
2023/10/01 10:46:29;;;;;;;6.53;1.83;;;19.10;1.00;;;;;;8346724;28;20237;-83
2023/10/01 10:51:02;;;;;;;2.97;1.27;;;18.90;1.00;;;;;;8334438;28;20205;-83
2023/10/01 10:55:17;;;;;;;3.60;1.80;;;18.70;1.00;;;;;;8332694;28;20178;-80
2023/10/01 10:59:19;;;;;;;8.90;1.93;;;18.80;1.00;;;;;;8351465;28;20229;-81
2023/10/01 11:03:43;;;;;;;5.43;1.73;;;18.70;1.00;;;;;;8333827;28;20202;-81
2023/10/01 11:08:00;;;;;;;4.53;1.50;;;18.80;1.00;;;;;;8350279;28;20206;-82
2023/10/01 11:12:21;;;;;;;3.87;1.47;;;18.70;1.00;;;;;;8351283;28;20178;-82
2023/10/01 11:16:24;;;;;;;7.07;1.90;;;18.70;1.00;;;;;;8349472;28;20223;-81
2023/10/01 11:20:34;;;;;;;3.23;1.40;;;18.80;1.00;;;;;;8337311;28;20205;-84
2023/10/01 11:24:34;;;;;;;7.23;1.87;;;19.10;1.00;;;;;;8366996;28;20221;-81
2023/10/01 11:28:41;;;;;;;7.07;2.00;;;19.10;1.00;;;;;;8359670;28;20402;-82
2023/10/01 11:32:58;;;;;;;5.87;1.70;;;19.20;1.00;;;;;;8354760;28;20182;-82
2023/10/01 11:36:59;;;;;;;3.73;1.63;;;19.30;1.00;;;;;;8333539;28;20190;-83
2023/10/01 11:41:08;;;;;;;8.43;2.13;;;19.10;1.00;;;;;;8334579;28;20251;-83
2023/10/01 11:45:30;;;;;;;6.70;2.13;;;19.00;1.00;;;;;;8335126;28;20325;-82
2023/10/01 11:49:35;;;;;;;6.80;1.80;;;18.90;1.00;;;;;;8351149;28;20193;-83
2023/10/01 11:53:57;;;;;;;6.57;1.97;;;19.00;1.00;;;;;;8350368;28;20197;-82
2023/10/01 11:57:58;;;;;;;11.20;2.07;;;19.10;1.00;;;;;;8346742;28;20201;-81
2023/10/01 12:02:18;;;;;;;4.27;1.73;;;19.40;1.00;;;;;;8334760;28;20303;-81
2023/10/01 12:06:33;;;;;;;4.83;1.73;;;19.40;1.00;;;;;;8335218;28;20198;-81
2023/10/01 12:10:37;;;;;;;3.30;1.40;;;19.40;1.00;;;;;;8333453;28;20189;-82
2023/10/01 12:14:53;;;;;;;4.03;1.40;;;19.50;1.00;;;;;;8331947;28;20217;-83
2023/10/01 12:19:17;;;;;;;7.73;1.90;;;19.60;1.00;;;;;;8328730;28;20192;-81
2023/10/01 12:23:19;;;;;;;5.70;1.50;;;19.80;1.00;;;;;;8346947;28;20205;-80
2023/10/01 12:27:38;;;;;;;5.20;1.53;;;19.90;1.00;;;;;;8329173;28;20233;-82
2023/10/01 12:31:45;;;;;;;4.37;1.30;;;20.00;1.00;;;;;;8331508;28;20523;-81
2023/10/01 12:35:46;;;;;;;2.87;1.20;;;20.10;1.00;;;;;;8330463;28;20177;-82
2023/10/01 12:39:50;;;;;;;5.70;1.60;;;20.20;1.00;;;;;;8326611;28;20185;-82
2023/10/01 12:44:11;;;;;;;3.77;1.53;;;20.50;1.00;;;;;;8345636;28;20499;-83
2023/10/01 12:48:12;;;;;;;5.63;1.80;;;20.70;1.00;;;;;;8346255;28;20339;-81
2023/10/01 12:52:16;;;;;;;4.63;1.87;;;20.70;1.00;;;;;;8344398;28;20204;-81
2023/10/01 12:56:43;;;;;;;5.17;1.20;;;20.60;1.00;;;;;;8326222;28;20275;-83
2023/10/01 13:00:45;;;;;;;4.43;1.50;;;20.70;1.00;;;;;;8347330;28;20205;-80
2023/10/01 13:04:48;;;;;;;2.63;1.03;;;20.90;1.00;;;;;;8328769;28;20514;-83
2023/10/01 13:08:49;;;;;;;2.70;0.97;;;20.90;1.00;;;;;;8326545;28;20244;-83
2023/10/01 13:12:56;;;;;;;3.07;1.33;;;20.90;1.00;;;;;;8343930;28;20185;-82
2023/10/01 13:17:00;;;;;;;5.43;1.60;;;20.90;1.00;;;;;;8329056;28;20194;-83
2023/10/01 13:21:09;;;;;;;3.80;1.57;;;21.10;1.00;;;;;;8327173;28;20210;-83
2023/10/01 13:25:10;;;;;;;3.80;1.30;;;20.90;1.00;;;;;;8327169;28;20330;-80
2023/10/01 13:29:28;;;;;;;3.47;1.50;;;20.60;1.00;;;;;;8325224;28;20221;-80
2023/10/01 13:38:25;;;;;;;2.63;1.53;;;20.20;1.00;;;;;;8329150;28;20403;-82
2023/10/01 14:12:56;;;;;;;2.73;1.23;;;20.00;99.90;;;;;;8351218;28;20193;-81
2023/10/01 14:17:13;;;;;;;2.73;1.43;;;20.10;99.90;;;;;;8351723;28;20185;-82
2023/10/01 14:21:15;;;;;;;2.60;1.30;;;20.10;99.90;;;;;;8350172;28;20287;-82
2023/10/01 14:25:20;;;;;;;3.37;1.60;;;20.10;99.90;;;;;;8328060;28;20247;-83
2023/10/01 14:29:24;;;;;;;2.80;1.67;;;20.20;99.90;;;;;;8348554;28;20221;-81
2023/10/01 14:33:29;;;;;;;2.93;1.50;;;20.10;99.90;;;;;;8338469;28;20221;-83
2023/10/01 14:37:32;;;;;;;3.00;1.40;;;19.90;99.90;;;;;;8367680;28;20186;-83
2023/10/01 14:41:37;;;;;;;4.27;1.70;;;19.80;1.00;;;;;;8329423;28;20189;-81
2023/10/01 14:45:44;;;;;;;2.93;1.40;;;19.70;1.00;;;;;;8332906;28;20193;-81
2023/10/01 14:49:45;;;;;;;3.07;1.30;;;19.70;1.00;;;;;;8351399;28;20186;-82
2023/10/01 14:53:54;;;;;;;4.33;1.50;;;19.80;1.00;;;;;;8333657;28;20254;-82
2023/10/01 14:57:55;;;;;;;4.63;2.10;;;19.70;1.00;;;;;;8352308;28;20470;-81
2023/10/01 15:01:59;;;;;;;5.20;2.10;;;19.60;1.00;;;;;;8329896;28;20214;-82
2023/10/01 15:06:10;;;;;;;3.83;2.23;;;19.50;1.00;;;;;;8347531;28;20197;-81
2023/10/01 15:10:10;;;;;;;4.13;1.70;;;19.40;1.00;;;;;;8344874;28;20201;-82
2023/10/01 15:14:11;;;;;;;3.50;1.70;;;19.30;1.00;;;;;;8330319;28;20225;-82
2023/10/01 15:18:17;;;;;;;3.83;2.17;;;19.20;1.00;;;;;;8344210;28;20209;-82
2023/10/01 15:22:18;;;;;;;4.03;1.80;;;19.00;1.00;;;;;;8321933;28;20210;-82
2023/10/01 15:26:21;;;;;;;3.00;1.67;;;18.90;1.00;;;;;;8329229;28;20217;-82
2023/10/01 15:30:30;;;;;;;2.83;1.50;;;18.90;1.00;;;;;;8328756;28;20457;-82
2023/10/01 15:34:38;;;;;;;2.70;1.70;;;19.00;1.00;;;;;;8343498;28;20188;-83
2023/10/01 15:38:39;;;;;;;4.10;2.10;;;18.90;1.00;;;;;;8344462;28;20186;-82
2023/10/01 15:42:53;;;;;;;3.27;1.70;;;19.00;1.00;;;;;;8326936;28;20222;-82
2023/10/01 15:46:59;;;;;;;5.13;2.20;;;19.00;1.00;;;;;;8344198;28;20369;-82
2023/10/01 15:51:02;;;;;;;3.97;1.60;;;18.90;1.00;;;;;;8324629;28;20548;-82
2023/10/01 15:55:13;;;;;;;2.73;1.70;;;18.80;1.00;;;;;;8319751;28;20461;-82
2023/10/01 15:59:19;;;;;;;2.70;1.57;;;18.70;1.00;;;;;;8342464;28;20212;-82
2023/10/01 16:03:30;;;;;;;2.03;1.10;;;18.60;1.00;;;;;;8323508;28;20220;-82
2023/10/01 16:07:31;;;;;;;2.00;1.40;;;18.50;1.00;;;;;;8305049;28;20259;-81
2023/10/01 16:11:33;;;;;;;3.63;1.87;;;18.40;1.00;;;;;;8325736;28;20206;-82
2023/10/01 16:15:35;;;;;;;2.80;1.47;;;18.20;1.00;;;;;;8323461;28;20269;-81
2023/10/01 16:19:36;;;;;;;2.30;1.47;;;18.00;1.00;;;;;;8324241;28;20267;-82
2023/10/01 16:23:40;;;;;;;2.63;1.33;;;17.80;1.00;;;;;;8343171;28;20251;-82
2023/10/01 16:27:41;;;;;;;1.60;1.03;;;17.70;1.00;;;;;;8325867;28;20210;-81
2023/10/01 16:31:42;;;;;;;2.33;1.33;;;17.60;1.00;;;;;;8323906;28;20184;-80
2023/10/01 16:35:47;;;;;;;2.67;1.50;;;17.50;1.00;;;;;;8325946;28;20187;-81
2023/10/01 16:39:48;;;;;;;1.90;1.30;;;17.50;1.00;;;;;;8340773;28;20228;-81
2023/10/01 16:43:52;;;;;;;3.00;1.50;;;17.40;1.00;;;;;;8323563;28;20189;-82
2023/10/01 16:47:59;;;;;;;2.00;1.33;;;17.30;1.00;;;;;;8338081;28;20206;-81
2023/10/01 16:52:02;;;;;;;3.83;1.57;;;17.20;1.00;;;;;;8326756;28;20205;-81
2023/10/01 16:56:15;;;;;;;2.90;1.47;;;17.20;1.00;;;;;;8325068;28;20186;-80
2023/10/01 17:00:19;;;;;;;3.13;1.60;;;17.10;1.00;;;;;;8324340;28;20198;-80
2023/10/01 17:04:26;;;;;;;3.00;1.50;;;17.10;1.00;;;;;;8326795;28;20591;-80
2023/10/01 17:08:28;;;;;;;3.57;2.30;;;17.00;1.00;;;;;;8343316;28;20229;-81
2023/10/01 17:12:28;;;;;;;4.77;1.60;;;17.00;1.00;;;;;;8325318;28;20193;-80
2023/10/01 17:16:31;;;;;;;3.90;2.00;;;16.80;1.00;;;;;;8324608;28;20210;-80
2023/10/01 17:20:32;;;;;;;3.13;1.80;;;16.70;1.00;;;;;;8343373;28;20202;-80
2023/10/01 17:24:33;;;;;;;3.70;2.10;;;16.60;1.00;;;;;;8325056;28;20185;-80
2023/10/01 17:28:50;;;;;;;3.43;2.17;;;16.60;1.00;;;;;;8324707;28;20213;-81
2023/10/01 17:33:04;;;;;;;2.13;1.93;;;16.50;1.00;;;;;;8326090;28;20186;-79
2023/10/01 17:37:09;;;;;;;4.33;1.73;;;16.50;1.00;;;;;;8327047;28;20340;-80
2023/10/01 17:41:19;;;;;;;3.07;1.57;;;16.40;1.00;;;;;;8342056;28;20186;-79
2023/10/01 17:45:22;;;;;;;3.53;2.00;;;16.50;1.00;;;;;;8325065;28;20350;-80
2023/10/01 17:49:27;;;;;;;3.40;2.00;;;16.50;1.00;;;;;;8319249;28;20319;-79
2023/10/01 17:53:30;;;;;;;3.60;1.90;;;16.40;1.00;;;;;;8327809;28;20217;-78
2023/10/01 17:57:33;;;;;;;3.53;2.10;;;16.50;1.00;;;;;;8334155;28;20182;-80
2023/10/01 18:01:37;;;;;;;3.73;2.30;;;16.40;1.00;;;;;;8309490;28;20228;-78
2023/10/01 18:05:46;;;;;;;3.80;2.10;;;16.40;1.00;;;;;;8325956;28;20209;-79
2023/10/01 18:09:55;;;;;;;3.57;2.20;;;16.30;1.00;;;;;;8319953;28;20313;-79
2023/10/01 18:13:57;;;;;;;4.13;2.20;;;16.20;1.00;;;;;;8325075;28;20182;-79
2023/10/01 18:17:58;;;;;;;2.97;2.10;;;16.10;1.00;;;;;;8327950;28;20244;-79
2023/10/01 18:22:14;;;;;;;3.90;2.30;;;16.10;1.00;;;;;;8343138;28;20281;-78
2023/10/01 18:26:19;;;;;;;5.23;2.63;;;16.10;1.00;;;;;;8327290;28;20197;-78
2023/10/01 18:30:23;;;;;;;3.97;2.23;;;16.10;1.00;;;;;;8350654;28;20209;-79
2023/10/01 18:34:27;;;;;;;5.77;2.73;;;16.00;1.00;;;;;;8331564;28;20217;-79
2023/10/01 18:38:32;;;;;;;4.70;2.67;;;16.00;1.00;;;;;;8333363;28;20200;-79
2023/10/01 18:42:33;;;;;;;5.00;2.90;;;15.90;1.00;;;;;;8330639;28;20201;-80
2023/10/01 18:46:34;;;;;;;4.63;2.10;;;15.90;1.00;;;;;;8329797;28;20515;-80
2023/10/01 18:50:35;;;;;;;3.90;2.83;;;15.90;1.00;;;;;;8328303;28;20334;-80
2023/10/01 18:54:37;;;;;;;4.07;2.50;;;15.90;1.00;;;;;;8348504;28;20189;-80
2023/10/01 18:58:41;;;;;;;3.90;2.60;;;15.90;1.00;;;;;;8329453;28;20205;-80
2023/10/01 19:02:42;;;;;;;4.77;2.83;;;15.80;1.00;;;;;;8326901;28;20200;-80
2023/10/01 19:06:43;;;;;;;4.47;2.43;;;15.70;1.00;;;;;;8329860;28;20561;-80
2023/10/01 19:10:45;;;;;;;4.20;2.60;;;15.60;1.00;;;;;;8329890;28;20251;-80
2023/10/01 19:14:48;;;;;;;5.27;3.00;;;15.50;1.00;;;;;;8326641;28;20376;-80
2023/10/01 19:19:03;;;;;;;4.53;2.70;;;15.50;1.00;;;;;;8326675;28;20251;-80
2023/10/01 19:23:04;;;;;;;6.30;3.20;;;15.50;1.00;;;;;;8327234;28;20221;-80
2023/10/01 19:27:14;;;;;;;4.10;2.63;;;15.50;1.00;;;;;;8345616;28;20205;-80
2023/10/01 19:31:16;;;;;;;5.17;3.00;;;15.50;1.00;;;;;;8310595;28;20182;-80
2023/10/01 19:35:20;;;;;;;4.47;2.60;;;15.50;1.00;;;;;;8344903;28;20190;-80
2023/10/01 19:39:22;;;;;;;4.47;2.80;;;15.50;1.00;;;;;;8340114;28;20200;-80
2023/10/01 19:43:26;;;;;;;5.17;2.53;;;15.50;1.00;;;;;;8326699;28;20202;-81
2023/10/01 19:47:28;;;;;;;4.87;2.63;;;15.40;1.00;;;;;;8327005;28;20224;-80
2023/10/01 19:51:32;;;;;;;3.77;2.30;;;15.50;1.00;;;;;;8342441;28;20186;-80
2023/10/01 19:55:34;;;;;;;5.27;2.70;;;15.50;1.00;;;;;;8345549;28;20369;-79
2023/10/01 19:59:37;;;;;;;4.73;2.77;;;15.40;1.00;;;;;;8325220;28;20198;-80
2023/10/01 20:03:40;;;;;;;4.00;2.20;;;15.40;1.00;;;;;;8324894;28;20190;-79
2023/10/01 20:07:46;;;;;;;4.87;2.70;;;15.30;1.00;;;;;;8323969;28;20212;-79
2023/10/01 20:11:47;;;;;;;5.93;2.80;;;15.20;1.00;;;;;;8325148;28;20181;-80
2023/10/01 20:15:51;;;;;;;5.70;2.80;;;15.10;1.00;;;;;;8324991;28;20186;-79
2023/10/01 20:19:52;;;;;;;4.00;2.70;;;15.00;1.00;;;;;;8325098;28;20185;-78
2023/10/01 20:23:56;;;;;;;4.80;2.70;;;15.00;1.00;;;;;;8347503;28;20231;-78
2023/10/01 20:27:58;;;;;;;4.57;2.67;;;15.00;1.00;;;;;;8325436;28;20223;-79
2023/10/01 20:32:02;;;;;;;4.07;2.30;;;14.90;1.00;;;;;;8328344;28;20188;-78
2023/10/01 20:36:06;;;;;;;4.50;2.70;;;14.90;1.00;;;;;;8326954;28;20251;-79
2023/10/01 20:40:12;;;;;;;3.73;2.60;;;14.90;1.00;;;;;;8342879;28;20246;-78
2023/10/01 20:44:13;;;;;;;5.43;2.70;;;14.90;1.00;;;;;;8327212;28;20182;-78
2023/10/01 20:48:20;;;;;;;4.07;2.90;;;15.00;1.00;;;;;;8325316;28;20225;-78
2023/10/01 20:52:34;;;;;;;4.20;2.63;;;15.00;1.00;;;;;;8346400;28;20221;-78
2023/10/01 20:56:35;;;;;;;4.27;2.90;;;15.10;1.00;;;;;;8328163;28;20186;-78
2023/10/01 21:00:40;;;;;;;4.50;2.53;;;15.10;1.00;;;;;;8328378;28;20205;-77
2023/10/01 21:04:41;;;;;;;4.27;2.97;;;15.10;1.00;;;;;;8341681;28;20193;-79
2023/10/01 21:08:41;;;;;;;4.67;3.00;;;15.10;1.00;;;;;;8327991;28;20260;-78
2023/10/01 21:12:43;;;;;;;3.90;2.60;;;15.10;1.00;;;;;;8329518;28;20286;-78
2023/10/01 21:16:44;;;;;;;4.00;2.77;;;15.10;1.00;;;;;;8328096;28;20515;-78
2023/10/01 21:20:47;;;;;;;4.57;2.83;;;15.20;1.00;;;;;;8343042;28;20651;-78
2023/10/01 21:24:52;;;;;;;4.90;2.70;;;15.30;1.00;;;;;;8328253;28;20194;-78
2023/10/01 21:28:56;;;;;;;3.43;2.50;;;15.30;1.00;;;;;;8323875;28;20213;-77
2023/10/01 21:32:57;;;;;;;3.43;2.57;;;15.30;1.00;;;;;;8329815;28;20186;-78
2023/10/01 21:36:58;;;;;;;4.03;2.70;;;15.30;1.00;;;;;;8330786;28;20205;-79
2023/10/01 21:41:11;;;;;;;4.63;2.73;;;15.30;1.00;;;;;;8330353;28;20205;-79
2023/10/01 21:45:28;;;;;;;4.00;2.60;;;15.20;1.00;;;;;;8328665;28;20190;-78
2023/10/01 21:49:31;;;;;;;4.47;2.63;;;15.30;1.00;;;;;;8330428;28;20252;-77
2023/10/01 21:53:43;;;;;;;5.33;2.67;;;15.30;1.00;;;;;;8330638;28;20200;-78
2023/10/01 21:57:47;;;;;;;5.60;2.90;;;15.30;1.00;;;;;;8345665;28;20170;-79
2023/10/01 22:01:52;;;;;;;5.00;2.83;;;15.30;1.00;;;;;;8328938;28;20199;-78
2023/10/01 22:05:54;;;;;;;7.13;3.07;;;15.30;1.00;;;;;;8335575;28;20256;-79
2023/10/01 22:10:06;;;;;;;3.80;2.87;;;15.30;1.00;;;;;;8333326;28;20205;-78
2023/10/01 22:14:15;;;;;;;4.23;2.77;;;15.20;1.00;;;;;;8332037;28;20182;-79
2023/10/01 22:18:23;;;;;;;4.30;2.70;;;15.30;1.00;;;;;;8332422;28;20265;-78
2023/10/01 22:22:26;;;;;;;5.23;2.80;;;15.20;1.00;;;;;;8353126;28;20206;-78
2023/10/01 22:26:31;;;;;;;5.10;3.43;;;15.20;1.00;;;;;;8332418;28;20202;-78
2023/10/01 22:30:36;;;;;;;5.53;2.87;;;15.30;1.00;;;;;;8348262;28;20174;-78
2023/10/01 22:34:39;;;;;;;5.47;3.40;;;15.30;1.00;;;;;;8347937;28;20257;-79
2023/10/01 22:38:41;;;;;;;4.67;2.83;;;15.30;1.00;;;;;;8330771;28;20186;-79
2023/10/01 22:42:41;;;;;;;6.80;3.33;;;15.20;1.00;;;;;;8340294;28;20186;-81